Otsego, MI (49078)

6:59 PM EST on February 20, 2017 (GMT -0500)
Weather Coffee Shoppe - Otsego | | Change Station
Active Advisory: Small Craft Advisory

Elev 722 ft 42.46 °N, 85.71 °W | Updated 32 seconds ago

Partly Cloudy
Partly Cloudy
54.9 °F
Feels Like 54.9 °F
N
2.0
Wind Variable Wind from South

Today
High -- | Low -- °F
--% Chance of Precip.
Yesterday
High -- | Low -- °F
Precip. -- in
Pressure 30.12 in
Visibility 10.0 miles
Clouds Clear
Dew Point 39 °F
Humidity 56%
Rainfall 0.00 in
Snow Depth Not available.
7:31 AM 6:21 PM
Waning Crescent, 30% visible
METAR KAZO 202353Z 13010G15KT 10SM CLR 12/02 A3010 RMK AO2 SLP198 T01220022 10178 20122 55008
Pressure 30.12 in
Visibility 10.0 miles
Clouds Clear
Dew Point 39 °F
Humidity 56%
Rainfall 0.00 in
Snow Depth Not available.
7:31 AM 6:21 PM
Waning Crescent, 30% visible
METAR KAZO 202353Z 13010G15KT 10SM CLR 12/02 A3010 RMK AO2 SLP198 T01220022 10178 20122 55008

Get Your Daily Forecast Email!

Thanks for signing up!

Be on the lookout for a verification email in your inbox.

You'll start receiving the daily forecast at 8 AM.

×

10-Day Weather Forecast

Almanac

Astronomy

Feb. 20, 2017 Rise Set
Actual Time
Civil Twilight
Nautical Twilight
Astronomical Twilight
Moon
Length of Visible Light
Length of Day
Tomorrow will be .
, % of the Moon is Illuminated

Today's Extremes

State Highs State Lows

Community

WunderPhotos

Upload Photos

1,962,540 photos uploaded!

WunderBlog® & News

Nearby

Air Quality

  Air Quality AQ Index Pollutant
Not available.

Snow Depth

Station Depth Elevation

Earthquake Activity

City Distance Mag. Time & Date
Minimum magnitude displayed is 2.5.

Coastal Water Temperatures

Place Temperature

Stations

Nearby Weather Stations

Station Location Temp. Windchill Dew Point Humidity Wind Precip. Elev Updated Type
                   

Watches & Warnings

Small Craft Advisory
Issued: 2:33 PM EST Feb. 20, 2017 – National Weather Service

... Small Craft Advisory remains in effect until 11 am EST
Tuesday...

* winds... southeast 15 to 25 knots shifting to southwest and
diminishing late.

* Waves... building to 3 to 6 feet then subsiding on Tuesday.


Precautionary/preparedness actions...

A Small Craft Advisory means that winds or waves are expected to
produce hazardous conditions to small craft. Inexperienced
mariners... especially those operating smaller vessels should
avoid navigating in these conditions.